Time;durP1;ratioP1;P1;durP2;ratioP2;P2;SDS_P1;SDS_P2;PMS_P1;PMS_P2;Temp;Humidity;BMP_temperature;BMP_pressure;BME280_temperature;BME280_humidity;BME280_pressure;Samples;Min_cycle;Max_cycle;Signal;HPM_P1;HPM_P2
2021/12/12 00:01:06;;;;;;;11.03;6.60;;;;;;;7.38;100.00;93300.53;5088158;28;20199;-76
2021/12/12 00:03:46;;;;;;;8.80;5.73;;;;;;;7.22;100.00;93283.97;5087696;28;20357;-76
2021/12/12 00:06:19;;;;;;;10.67;6.13;;;;;;;7.32;100.00;93302.25;5082955;28;20238;-76
2021/12/12 00:08:52;;;;;;;14.23;8.40;;;;;;;7.13;100.00;93302.69;5087962;28;20630;-76
2021/12/12 00:11:26;;;;;;;13.03;8.47;;;;;;;7.10;100.00;93327.13;5088242;28;20208;-77
2021/12/12 00:14:00;;;;;;;15.37;10.23;;;;;;;7.07;100.00;93329.41;5088374;28;20226;-77
2021/12/12 00:16:30;;;;;;;13.20;7.83;;;;;;;6.97;100.00;93332.56;5087789;28;20211;-76
2021/12/12 00:18:58;;;;;;;12.77;8.40;;;;;;;6.98;100.00;93352.22;5088349;28;20205;-76
2021/12/12 00:21:30;;;;;;;12.50;7.33;;;;;;;6.92;100.00;93358.31;5088104;28;20280;-76
2021/12/12 00:23:58;;;;;;;11.97;7.47;;;;;;;7.03;100.00;93352.31;5088061;28;20281;-77
2021/12/12 00:26:29;;;;;;;12.30;7.43;;;;;;;7.11;100.00;93348.59;5087720;28;20231;-76
2021/12/12 00:28:59;;;;;;;13.97;7.90;;;;;;;7.19;100.00;93346.44;5087778;28;20323;-76
2021/12/12 00:31:28;;;;;;;16.80;9.03;;;;;;;7.22;100.00;93363.28;5087800;28;20234;-75
2021/12/12 00:33:57;;;;;;;13.10;6.47;;;;;;;7.26;100.00;93370.34;5087455;28;20236;-76
2021/12/12 00:36:27;;;;;;;6.70;4.33;;;;;;;7.44;100.00;93387.50;5088092;28;20634;-76
2021/12/12 00:39:01;;;;;;;4.93;2.80;;;;;;;7.59;100.00;93384.41;5088144;28;20243;-75
2021/12/12 00:41:36;;;;;;;1.83;1.33;;;;;;;7.78;100.00;93406.47;5086937;28;20626;-74
2021/12/12 00:44:11;;;;;;;1.30;1.20;;;;;;;7.92;100.00;93412.94;5084999;28;20212;-74
2021/12/12 00:46:41;;;;;;;3.13;1.10;;;;;;;7.94;100.00;93411.66;5087594;28;20214;-76
2021/12/12 00:49:11;;;;;;;0.90;0.90;;;;;;;7.97;100.00;93411.22;5088198;28;20243;-75
2021/12/12 00:51:43;;;;;;;1.00;1.00;;;;;;;8.00;100.00;93426.25;5086987;28;20200;-75
2021/12/12 00:54:18;;;;;;;1.93;1.40;;;;;;;8.02;100.00;93439.75;5087934;28;20230;-76
2021/12/12 00:56:48;;;;;;;3.80;1.50;;;;;;;7.99;100.00;93444.63;5087006;28;20210;-76
2021/12/12 00:59:18;;;;;;;1.80;1.40;;;;;;;7.99;100.00;93460.13;5087302;28;20207;-76
2021/12/12 01:01:51;;;;;;;2.73;1.80;;;;;;;7.97;100.00;93449.22;5086980;28;20208;-76
2021/12/12 01:04:23;;;;;;;2.23;1.53;;;;;;;7.96;100.00;93460.59;5088161;28;20192;-76
2021/12/12 01:06:53;;;;;;;3.03;1.90;;;;;;;7.97;100.00;93462.16;5086742;28;20226;-75
2021/12/12 01:09:26;;;;;;;3.40;2.10;;;;;;;7.87;100.00;93455.00;5087546;28;20211;-75
2021/12/12 01:11:58;;;;;;;3.07;2.20;;;;;;;7.81;100.00;93447.38;5086623;28;20235;-76
2021/12/12 01:14:39;;;;;;;3.73;2.40;;;;;;;7.78;100.00;93446.03;5086491;28;20235;-76
2021/12/12 01:17:11;;;;;;;4.00;2.50;;;;;;;7.67;100.00;93452.03;5082832;28;20195;-76
2021/12/12 01:19:44;;;;;;;2.17;1.80;;;;;;;7.50;100.00;93456.38;5090825;28;20266;-75
2021/12/12 01:22:16;;;;;;;1.63;1.43;;;;;;;7.39;100.00;93445.00;5091606;28;20208;-75
2021/12/12 01:24:50;;;;;;;1.40;1.30;;;;;;;7.32;100.00;93443.59;5090600;28;20823;-75
2021/12/12 01:27:19;;;;;;;1.23;1.13;;;;;;;7.26;100.00;93440.09;5091774;28;20199;-76
2021/12/12 01:29:49;;;;;;;2.00;0.83;;;;;;;7.26;100.00;93436.72;5090176;28;20290;-76
2021/12/12 01:32:27;;;;;;;1.20;1.10;;;;;;;7.26;100.00;93439.31;5092010;28;20215;-75
2021/12/12 01:34:56;;;;;;;1.30;1.20;;;;;;;7.25;100.00;93442.91;5091524;28;20219;-76
2021/12/12 01:37:39;;;;;;;0.80;0.80;;;;;;;7.25;100.00;93432.56;5088044;28;20291;-76
2021/12/12 01:40:16;;;;;;;1.43;1.30;;;;;;;7.29;100.00;93434.50;5091244;28;20232;-75
2021/12/12 01:42:47;;;;;;;1.47;1.10;;;;;;;7.37;100.00;93430.75;5090446;28;20218;-76
2021/12/12 01:45:21;;;;;;;1.23;1.10;;;;;;;7.42;100.00;93443.78;5091691;28;20324;-76
2021/12/12 01:47:53;;;;;;;0.90;0.90;;;;;;;7.32;100.00;93441.78;5090585;28;20207;-77
2021/12/12 01:50:30;;;;;;;0.90;0.90;;;;;;;7.37;100.00;93441.09;5090873;28;20715;-75
2021/12/12 01:53:02;;;;;;;1.00;1.00;;;;;;;7.46;100.00;93444.09;5091203;28;20584;-77
2021/12/12 01:55:34;;;;;;;1.93;1.77;;;;;;;7.53;100.00;93470.63;5088265;28;20235;-76
2021/12/12 01:58:09;;;;;;;3.43;2.10;;;;;;;7.34;100.00;93462.22;5085423;28;20204;-76
2021/12/12 02:00:43;;;;;;;2.83;2.10;;;;;;;7.25;100.00;93479.88;5090351;28;20214;-75
2021/12/12 02:03:16;;;;;;;2.07;1.70;;;;;;;7.28;100.00;93479.41;5091521;28;20258;-75
2021/12/12 02:05:48;;;;;;;2.70;1.93;;;;;;;7.24;100.00;93485.28;5091079;28;20216;-75
2021/12/12 02:08:23;;;;;;;1.63;1.40;;;;;;;7.21;100.00;93486.50;5092170;28;20275;-76
2021/12/12 02:10:54;;;;;;;1.87;1.40;;;;;;;7.30;100.00;93489.53;5091750;28;20261;-76
2021/12/12 02:13:28;;;;;;;1.37;1.17;;;;;;;7.24;100.00;93487.84;5093378;28;20204;-77
2021/12/12 02:16:01;;;;;;;1.23;1.13;;;;;;;7.24;100.00;93477.53;5091431;28;20223;-76
2021/12/12 02:18:36;;;;;;;1.10;1.10;;;;;;;7.20;100.00;93478.97;5088723;28;20200;-77
2021/12/12 02:21:11;;;;;;;1.03;1.00;;;;;;;7.25;100.00;93466.94;5085225;28;20671;-76
2021/12/12 02:24:01;;;;;;;1.13;1.10;;;;;;;7.23;100.00;93460.44;5090066;28;20226;-75
2021/12/12 02:35:15;;;;;;;1.07;1.00;;;;;;;7.27;100.00;93484.81;5090122;28;20280;-76
2021/12/12 02:37:45;;;;;;;2.10;1.20;;;;;;;7.36;100.00;93504.91;5088904;28;20215;-76
2021/12/12 02:40:22;;;;;;;1.10;1.00;;;;;;;7.43;100.00;93504.78;5090690;28;20207;-77
2021/12/12 02:42:50;;;;;;;1.03;0.93;;;;;;;7.48;100.00;93512.66;5090337;28;20227;-77
2021/12/12 02:45:21;;;;;;;1.93;1.30;;;;;;;7.54;100.00;93526.47;5090699;28;20290;-77
2021/12/12 02:47:57;;;;;;;2.60;1.23;;;;;;;7.44;100.00;93527.06;5089876;28;20223;-78
2021/12/12 02:50:33;;;;;;;3.90;1.47;;;;;;;7.39;100.00;93521.75;5089523;28;20211;-77
2021/12/12 02:53:12;;;;;;;2.37;1.50;;;;;;;7.38;100.00;93527.94;5089549;28;20742;-77
2021/12/12 02:55:46;;;;;;;2.30;1.63;;;;;;;7.34;100.00;93529.41;5087384;28;20655;-77
2021/12/12 02:58:19;;;;;;;3.37;2.10;;;;;;;7.27;100.00;93523.56;5090211;28;20199;-77
2021/12/12 03:00:52;;;;;;;2.87;1.93;;;;;;;7.16;100.00;93517.38;5089269;28;20208;-77
2021/12/12 03:03:21;;;;;;;5.20;1.77;;;;;;;7.18;100.00;93527.50;5090303;28;20213;-77
2021/12/12 03:05:50;;;;;;;3.60;1.70;;;;;;;7.18;100.00;93535.25;5089672;28;20210;-77
2021/12/12 03:08:22;;;;;;;2.67;1.97;;;;;;;7.14;100.00;93528.94;5089991;28;20291;-77
2021/12/12 03:10:57;;;;;;;5.57;2.30;;;;;;;7.17;100.00;93531.88;5088602;28;20273;-76
2021/12/12 03:13:26;;;;;;;2.77;1.90;;;;;;;7.18;100.00;93541.22;5090072;28;20213;-77
2021/12/12 03:15:56;;;;;;;3.80;2.30;;;;;;;7.20;100.00;93553.91;5089721;28;20263;-77
2021/12/12 03:18:28;;;;;;;5.13;2.40;;;;;;;7.25;100.00;93559.16;5089478;28;20258;-77
2021/12/12 03:20:58;;;;;;;6.30;2.37;;;;;;;7.02;100.00;93554.78;5089732;28;20209;-77
2021/12/12 03:23:31;;;;;;;3.57;2.63;;;;;;;6.91;100.00;93549.59;5086173;28;20195;-77
2021/12/12 03:26:03;;;;;;;3.57;2.77;;;;;;;6.70;100.00;93549.09;5089488;28;20473;-77
2021/12/12 03:28:36;;;;;;;3.27;2.30;;;;;;;6.74;100.00;93565.75;5089428;28;20203;-77
2021/12/12 03:31:06;;;;;;;2.10;1.90;;;;;;;6.62;100.00;93559.75;5089535;28;20722;-77
2021/12/12 03:33:38;;;;;;;1.90;1.70;;;;;;;6.48;100.00;93575.63;5089421;28;20263;-78
2021/12/12 03:36:10;;;;;;;3.03;1.80;;;;;;;6.32;100.00;93561.53;5086019;28;20223;-77
2021/12/12 03:38:42;;;;;;;2.77;2.03;;;;;;;6.23;100.00;93581.69;5088531;28;20263;-77
2021/12/12 03:41:15;;;;;;;2.90;2.10;;;;;;;6.19;100.00;93587.53;5089337;28;20261;-76
2021/12/12 03:43:45;;;;;;;3.63;2.30;;;;;;;5.94;100.00;93597.16;5088804;28;20206;-76
2021/12/12 03:46:13;;;;;;;2.17;1.97;;;;;;;5.83;100.00;93603.00;5089849;28;20198;-75
2021/12/12 03:48:45;;;;;;;3.33;2.47;;;;;;;5.89;100.00;93607.31;5087792;28;20638;-76
2021/12/12 03:51:16;;;;;;;2.90;2.40;;;;;;;5.76;100.00;93605.63;5089007;28;20206;-76
2021/12/12 03:53:46;;;;;;;2.50;2.30;;;;;;;5.74;100.00;93612.81;5087096;28;20225;-76
2021/12/12 03:56:18;;;;;;;2.70;2.23;;;;;;;5.68;100.00;93624.72;5088648;28;20355;-76
2021/12/12 03:58:48;;;;;;;2.70;2.47;;;;;;;5.69;100.00;93621.16;5087775;28;20613;-75
2021/12/12 04:01:22;;;;;;;2.90;2.50;;;;;;;5.54;100.00;93618.13;5088497;28;20239;-77
2021/12/12 04:03:53;;;;;;;2.63;2.20;;;;;;;5.43;100.00;93631.72;5087673;28;20205;-76
2021/12/12 04:06:25;;;;;;;4.30;2.07;;;;;;;5.28;100.00;93626.09;5088608;28;20201;-77
2021/12/12 04:08:56;;;;;;;2.13;2.00;;;;;;;5.21;100.00;93640.81;5087333;28;20197;-76
2021/12/12 04:11:29;;;;;;;2.47;2.20;;;;;;;5.19;100.00;93631.72;5088550;28;20202;-76
2021/12/12 04:13:59;;;;;;;2.30;2.10;;;;;;;5.22;100.00;93634.69;5087942;28;20698;-76
2021/12/12 04:16:31;;;;;;;2.70;2.00;;;;;;;5.21;100.00;93655.47;5088095;28;20809;-76
2021/12/12 04:19:04;;;;;;;2.20;2.00;;;;;;;5.15;100.00;93659.69;5088070;28;20209;-76
2021/12/12 04:21:33;;;;;;;2.03;1.83;;;;;;;5.05;100.00;93649.06;5087894;28;20254;-76
2021/12/12 04:24:02;;;;;;;2.07;1.80;;;;;;;5.05;100.00;93665.28;5088254;28;20556;-77
2021/12/12 04:26:35;;;;;;;2.20;2.00;;;;;;;5.11;100.00;93673.94;5088222;28;20660;-76
2021/12/12 04:29:08;;;;;;;2.07;1.70;;;;;;;5.13;100.00;93688.22;5088830;28;20213;-77
2021/12/12 04:31:39;;;;;;;2.40;2.00;;;;;;;5.06;100.00;93694.41;5087778;28;20563;-77
2021/12/12 04:34:08;;;;;;;1.70;1.60;;;;;;;4.96;100.00;93689.69;5082766;28;20303;-78
2021/12/12 04:36:38;;;;;;;1.80;1.70;;;;;;;4.84;100.00;93696.50;5087913;28;20225;-77
2021/12/12 04:39:11;;;;;;;1.80;1.70;;;;;;;4.69;100.00;93708.84;5082310;28;20208;-76
2021/12/12 04:41:43;;;;;;;1.70;1.60;;;;;;;4.66;100.00;93713.63;5087500;28;20201;-77
2021/12/12 04:44:11;;;;;;;5.33;1.70;;;;;;;4.45;100.00;93712.91;5088185;28;20243;-77
2021/12/12 04:52:17;;;;;;;1.70;1.60;;;;;;;4.22;100.00;93746.00;5083273;28;20204;-76
2021/12/12 04:54:56;;;;;;;1.67;1.57;;;;;;;4.14;100.00;93753.94;5087031;28;20237;-78
2021/12/12 04:57:31;;;;;;;1.90;1.50;;;;;;;4.17;100.00;93738.13;5088090;28;20200;-77
2021/12/12 05:00:10;;;;;;;1.63;1.50;;;;;;;4.20;100.00;93737.72;5087593;28;20196;-77
2021/12/12 05:02:44;;;;;;;1.60;1.50;;;;;;;4.11;100.00;93756.91;5087181;28;20579;-76
2021/12/12 05:05:20;;;;;;;1.50;1.40;;;;;;;3.95;100.00;93744.50;5087714;28;20192;-76
2021/12/12 05:07:54;;;;;;;1.50;1.40;;;;;;;4.07;100.00;93757.53;5087101;28;20315;-76
2021/12/12 05:10:30;;;;;;;1.50;1.40;;;;;;;3.99;100.00;93759.31;5087905;28;20294;-76
2021/12/12 05:13:15;;;;;;;1.50;1.40;;;;;;;3.97;100.00;93771.56;5087584;28;20226;-77
2021/12/12 05:15:46;;;;;;;2.73;1.40;;;;;;;3.92;100.00;93773.97;5087390;28;20231;-77
2021/12/12 05:18:19;;;;;;;1.40;1.30;;;;;;;3.90;100.00;93783.63;5087807;28;20733;-77
2021/12/12 05:20:51;;;;;;;1.47;1.37;;;;;;;3.85;100.00;93785.22;5086479;28;20232;-76
2021/12/12 05:23:23;;;;;;;1.67;1.50;;;;;;;3.80;100.00;93797.88;5087326;28;20283;-76
2021/12/12 05:25:56;;;;;;;1.80;1.50;;;;;;;3.88;100.00;93810.50;5086935;28;20217;-77
2021/12/12 05:28:30;;;;;;;1.50;1.40;;;;;;;3.69;100.00;93812.09;5084168;28;20201;-77
2021/12/12 05:31:01;;;;;;;2.00;1.80;;;;;;;3.75;100.00;93813.84;5086282;28;20245;-76
2021/12/12 05:33:31;;;;;;;1.80;1.70;;;;;;;3.74;100.00;93807.16;5080963;28;20197;-77
2021/12/12 05:36:02;;;;;;;2.17;1.77;;;;;;;3.65;100.00;93803.19;5087465;28;20224;-77
2021/12/12 05:38:33;;;;;;;1.70;1.60;;;;;;;3.58;100.00;93801.63;5087152;28;20672;-83
2021/12/12 05:41:02;;;;;;;1.60;1.50;;;;;;;3.60;100.00;93813.28;5087819;28;20215;-77
2021/12/12 05:43:33;;;;;;;3.63;1.73;;;;;;;3.59;100.00;93824.53;5087337;28;20207;-76
2021/12/12 05:46:02;;;;;;;2.37;1.70;;;;;;;3.68;100.00;93827.69;5087321;28;20200;-77
2021/12/12 05:48:30;;;;;;;2.97;1.90;;;;;;;3.61;100.00;93829.47;5087284;28;20266;-76
2021/12/12 05:51:04;;;;;;;3.57;2.00;;;;;;;3.58;100.00;93843.47;5086992;28;20204;-76
2021/12/12 05:53:34;;;;;;;1.97;1.70;;;;;;;3.59;100.00;93859.69;5086664;28;20234;-76
2021/12/12 05:56:03;;;;;;;1.57;1.47;;;;;;;3.58;100.00;93876.09;5085861;28;20224;-76
2021/12/12 05:58:33;;;;;;;1.90;1.70;;;;;;;3.51;100.00;93880.41;5087216;28;20665;-77
2021/12/12 06:01:06;;;;;;;2.27;1.90;;;;;;;3.53;100.00;93896.41;5087482;28;20209;-79
2021/12/12 06:03:39;;;;;;;2.70;1.60;;;;;;;3.48;100.00;93904.72;5086991;28;20201;-77
2021/12/12 06:06:12;;;;;;;2.20;1.80;;;;;;;3.60;100.00;93899.81;5084785;28;20197;-76
2021/12/12 06:08:42;;;;;;;4.00;2.20;;;;;;;3.50;100.00;93889.09;5088124;28;20211;-76
2021/12/12 06:11:18;;;;;;;4.10;2.63;;;;;;;3.61;100.00;93914.25;5090699;28;20364;-73
2021/12/12 06:13:50;;;;;;;2.53;2.07;;;;;;;3.43;100.00;93904.50;5090302;28;20287;-72
2021/12/12 06:16:20;;;;;;;2.63;2.10;;;;;;;3.39;100.00;93906.66;5091206;28;20683;-72
2021/12/12 06:18:53;;;;;;;2.67;2.20;;;;;;;3.46;100.00;93900.75;5089912;28;20205;-74
2021/12/12 06:21:21;;;;;;;4.50;2.30;;;;;;;3.40;100.00;93905.69;5090649;28;20292;-72
2021/12/12 06:23:49;;;;;;;2.23;2.03;;;;;;;3.32;100.00;93910.16;5089647;28;20211;-73
2021/12/12 06:26:20;;;;;;;2.27;2.07;;;;;;;3.39;100.00;93924.63;5090524;28;20602;-74
2021/12/12 06:28:50;;;;;;;2.17;1.80;;;;;;;3.42;100.00;93928.59;5089988;28;20283;-73
2021/12/12 06:31:19;;;;;;;2.13;1.80;;;;;;;3.38;100.00;93927.38;5090375;28;20228;-73
2021/12/12 06:33:48;;;;;;;2.40;1.93;;;;;;;3.43;100.00;93940.47;5089699;28;20212;-73
2021/12/12 06:36:20;;;;;;;4.97;3.13;;;;;;;3.41;100.00;93939.84;5090504;28;20227;-73
2021/12/12 06:38:51;;;;;;;3.50;2.50;;;;;;;3.41;100.00;93934.69;5089296;28;20239;-74
2021/12/12 06:41:21;;;;;;;6.70;3.90;;;;;;;3.49;100.00;93952.53;5090355;28;20250;-73
2021/12/12 06:43:53;;;;;;;5.43;3.43;;;;;;;3.61;100.00;93961.25;5089018;28;20651;-74
2021/12/12 06:46:23;;;;;;;6.87;4.43;;;;;;;3.56;100.00;93970.50;5090101;28;20595;-73
2021/12/12 06:48:52;;;;;;;8.63;5.57;;;;;;;3.25;100.00;93976.91;5088870;28;20211;-73
2021/12/12 06:51:23;;;;;;;10.77;6.47;;;;;;;3.21;100.00;93978.25;5089564;28;20193;-74
2021/12/12 06:53:51;;;;;;;8.93;5.10;;;;;;;3.11;100.00;93980.38;5087512;28;21025;-72
2021/12/12 06:56:22;;;;;;;7.07;4.50;;;;;;;3.22;100.00;93985.00;5088431;28;20285;-75
2021/12/12 06:58:52;;;;;;;5.33;3.90;;;;;;;3.13;100.00;93982.75;5079238;28;20275;-72
2021/12/12 07:01:22;;;;;;;7.93;5.20;;;;;;;3.15;100.00;93993.63;5088070;28;20193;-75
2021/12/12 07:03:51;;;;;;;7.60;4.60;;;;;;;3.26;100.00;93993.13;5088029;28;20204;-73
2021/12/12 07:06:21;;;;;;;6.00;4.20;;;;;;;3.35;100.00;94003.00;5088003;28;20191;-73
2021/12/12 07:08:49;;;;;;;8.73;4.67;;;;;;;3.35;100.00;94000.44;5088245;28;20201;-75
2021/12/12 07:11:18;;;;;;;6.60;4.63;;;;;;;3.05;100.00;93991.41;5089053;28;20228;-78
2021/12/12 07:13:47;;;;;;;9.57;6.30;;;;;;;2.97;100.00;94012.09;5090186;28;20211;-81
2021/12/12 07:16:20;;;;;;;16.50;10.27;;;;;;;2.75;100.00;94023.34;5091419;28;20228;-83
2021/12/12 07:18:50;;;;;;;17.60;12.63;;;;;;;2.61;100.00;94008.84;5090715;28;20204;-76
2021/12/12 07:21:21;;;;;;;22.70;16.30;;;;;;;2.66;100.00;94020.13;5091019;28;20196;-76
2021/12/12 07:23:51;;;;;;;28.17;18.17;;;;;;;2.74;100.00;94024.34;5087502;28;20208;-76
2021/12/12 07:26:24;;;;;;;19.03;12.20;;;;;;;2.90;100.00;94046.34;5087307;28;20188;-89
2021/12/12 07:28:58;;;;;;;14.53;7.80;;;;;;;2.80;100.00;94036.41;5088482;28;20200;-74
2021/12/12 07:31:30;;;;;;;11.17;6.53;;;;;;;2.85;100.00;94058.00;5089921;28;20720;-80
2021/12/12 07:34:04;;;;;;;7.77;3.90;;;;;;;2.90;100.00;94057.41;5090125;28;20271;-79
2021/12/12 07:36:35;;;;;;;5.73;3.43;;;;;;;2.78;100.00;94058.91;5090299;28;20227;-78
2021/12/12 07:39:06;;;;;;;4.93;3.60;;;;;;;2.69;100.00;94053.09;5090681;28;20199;-77
2021/12/12 07:41:37;;;;;;;5.97;3.80;;;;;;;2.37;100.00;94019.50;5089806;28;20219;-77
2021/12/12 07:44:08;;;;;;;10.47;6.47;;;;;;;2.56;100.00;94065.03;5086405;28;20199;-78
2021/12/12 07:46:39;;;;;;;25.27;9.83;;;;;;;2.51;100.00;94070.69;5089519;28;20239;-78
2021/12/12 07:49:09;;;;;;;18.23;10.40;;;;;;;2.52;100.00;94071.50;5086131;28;20228;-79
2021/12/12 07:51:40;;;;;;;11.47;7.10;;;;;;;2.39;100.00;94081.63;5089085;28;20289;-78
2021/12/12 07:54:10;;;;;;;11.40;7.50;;;;;;;2.36;100.00;94076.88;5089353;28;20240;-78
2021/12/12 07:56:43;;;;;;;9.10;5.07;;;;;;;2.28;100.00;94088.81;5089082;28;20341;-78
2021/12/12 07:59:14;;;;;;;8.17;5.13;;;;;;;2.21;100.00;94080.28;5089693;28;20199;-78
2021/12/12 08:01:48;;;;;;;10.93;6.07;;;;;;;2.38;100.00;94100.53;5089661;28;20624;-79
2021/12/12 08:04:19;;;;;;;12.40;6.83;;;;;;;2.46;100.00;94108.09;5090181;28;20200;-77
2021/12/12 08:06:51;;;;;;;10.50;6.00;;;;;;;2.52;100.00;94113.31;5089318;28;20200;-79
2021/12/12 08:09:22;;;;;;;10.97;6.40;;;;;;;2.47;100.00;94125.88;5089950;28;20295;-79
2021/12/12 08:11:50;;;;;;;13.93;8.00;;;;;;;2.49;100.00;94131.63;5086018;28;20664;-81
2021/12/12 08:14:24;;;;;;;13.67;7.83;;;;;;;2.62;100.00;94130.97;5088735;28;20265;-79
2021/12/12 08:16:55;;;;;;;11.10;6.80;;;;;;;2.70;100.00;94141.09;5088713;28;20224;-77
2021/12/12 08:19:28;;;;;;;11.43;6.47;;;;;;;2.62;100.00;94141.22;5089592;28;20247;-78
2021/12/12 08:22:00;;;;;;;17.03;9.80;;;;;;;2.63;100.00;94147.94;5089048;28;20706;-81
2021/12/12 08:24:29;;;;;;;17.43;10.47;;;;;;;2.63;100.00;94135.09;5088668;28;20202;-77
2021/12/12 08:26:59;;;;;;;13.00;8.40;;;;;;;2.61;100.00;94145.56;5088122;28;20205;-78
2021/12/12 08:29:29;;;;;;;12.87;7.93;;;;;;;2.63;100.00;94147.94;5088432;28;20219;-76
2021/12/12 08:32:04;;;;;;;9.77;6.57;;;;;;;2.59;100.00;94141.59;5088419;28;20258;-83
2021/12/12 08:34:35;;;;;;;9.97;6.83;;;;;;;2.43;100.00;94149.50;5088817;28;20208;-78
2021/12/12 08:37:07;;;;;;;17.40;9.53;;;;;;;2.43;100.00;94155.41;5089688;28;20280;-78
2021/12/12 08:39:40;;;;;;;11.80;7.30;;;;;;;2.57;100.00;94151.25;5087823;28;20207;-79
2021/12/12 08:42:12;;;;;;;13.50;8.43;;;;;;;2.45;100.00;94143.22;5089652;28;20200;-79
2021/12/12 08:44:42;;;;;;;8.77;5.50;;;;;;;2.47;100.00;94168.69;5088937;28;20249;-80
2021/12/12 08:47:14;;;;;;;8.63;5.37;;;;;;;2.44;100.00;94156.22;5089406;28;20207;-75
2021/12/12 08:49:47;;;;;;;14.30;6.93;;;;;;;2.35;100.00;94167.53;5087008;28;20205;-74
2021/12/12 08:52:22;;;;;;;13.17;6.30;;;;;;;2.31;100.00;94171.47;5089231;28;20211;-76
2021/12/12 08:54:54;;;;;;;12.60;6.87;;;;;;;2.29;100.00;94189.56;5087833;28;20327;-74
2021/12/12 08:57:38;;;;;;;10.27;5.77;;;;;;;2.18;100.00;94162.63;5088086;28;20221;-79
2021/12/12 09:00:11;;;;;;;9.90;5.97;;;;;;;2.10;100.00;94173.00;5087341;28;20754;-82
2021/12/12 09:02:42;;;;;;;13.43;6.20;;;;;;;2.03;100.00;94184.09;5088532;28;20215;-75
2021/12/12 09:05:20;;;;;;;11.93;6.30;;;;;;;1.87;100.00;94186.88;5089151;28;20567;-79
2021/12/12 09:07:53;;;;;;;10.73;6.37;;;;;;;1.78;100.00;94178.47;5087426;28;20209;-79
2021/12/12 09:10:26;;;;;;;10.73;6.13;;;;;;;1.63;100.00;94186.13;5088209;28;20200;-79
2021/12/12 09:13:06;;;;;;;8.27;5.47;;;;;;;1.55;100.00;94190.53;5087329;28;20200;-82
2021/12/12 09:15:40;;;;;;;9.83;6.50;;;;;;;1.60;100.00;94189.03;5087204;28;20266;-80
2021/12/12 09:18:14;;;;;;;13.93;8.13;;;;;;;1.49;100.00;94184.34;5086309;28;20216;-83
2021/12/12 09:20:53;;;;;;;11.73;6.93;;;;;;;1.44;100.00;94181.53;5087128;28;20202;-80
2021/12/12 09:23:27;;;;;;;10.80;6.77;;;;;;;1.43;100.00;94189.38;5084678;28;20586;-82
2021/12/12 09:26:00;;;;;;;14.43;8.50;;;;;;;1.44;100.00;94198.66;5088257;28;20215;-80
2021/12/12 09:28:35;;;;;;;13.77;8.50;;;;;;;1.42;100.00;94188.56;5086475;28;20218;-79
2021/12/12 09:31:06;;;;;;;11.57;6.43;;;;;;;1.54;100.00;94222.22;5084776;28;20650;-79
2021/12/12 09:33:45;;;;;;;8.83;6.23;;;;;;;1.60;100.00;94211.28;5087790;28;20240;-80
2021/12/12 09:36:18;;;;;;;8.23;5.83;;;;;;;1.58;100.00;94203.00;5086834;28;20688;-80
2021/12/12 09:38:57;;;;;;;8.17;5.67;;;;;;;1.65;100.00;94216.69;5088523;28;20652;-80
2021/12/12 09:41:42;;;;;;;11.17;7.20;;;;;;;1.66;100.00;94216.53;5089638;28;20204;-79
2021/12/12 09:44:54;;;;;;;9.07;6.17;;;;;;;1.70;100.00;94222.88;5088686;28;20201;-80
2021/12/12 09:47:59;;;;;;;9.77;6.30;;;;;;;1.59;100.00;94219.94;5078118;28;20280;-80
2021/12/12 09:53:58;;;;;;;10.10;6.77;;;;;;;1.69;100.00;94226.41;5090124;28;20202;-79
2021/12/12 09:56:36;;;;;;;10.00;6.67;;;;;;;1.85;100.00;94222.88;5089003;28;20203;-80
2021/12/12 09:59:10;;;;;;;11.30;7.33;;;;;;;1.98;100.00;94235.88;5088823;28;20455;-80
2021/12/12 10:01:45;;;;;;;13.50;8.23;;;;;;;2.05;100.00;94248.81;5090983;28;20196;-80
2021/12/12 10:04:28;;;;;;;13.77;9.20;;;;;;;2.14;100.00;94240.84;5092053;28;20204;-80
2021/12/12 10:07:03;;;;;;;12.27;6.87;;;;;;;2.28;100.00;94250.28;5091331;28;20208;-79
2021/12/12 10:09:38;;;;;;;9.33;5.80;;;;;;;2.15;100.00;94246.75;5091217;28;20242;-79
2021/12/12 10:12:14;;;;;;;9.53;5.60;;;;;;;1.95;100.00;94253.38;5087688;28;20204;-80
2021/12/12 10:14:48;;;;;;;11.13;5.83;;;;;;;2.06;100.00;94252.94;5090913;28;20256;-80
2021/12/12 10:17:25;;;;;;;10.30;6.53;;;;;;;1.95;100.00;94258.50;5091587;28;20247;-79
2021/12/12 10:20:00;;;;;;;12.40;7.10;;;;;;;1.92;100.00;94253.72;5089745;28;20211;-80
2021/12/12 10:22:43;;;;;;;10.07;6.10;;;;;;;1.79;100.00;94248.41;5088490;28;20277;-79
2021/12/12 10:25:16;;;;;;;10.33;6.63;;;;;;;1.97;100.00;94264.22;5086994;28;20249;-80
2021/12/12 10:27:51;;;;;;;14.70;7.47;;;;;;;1.94;100.00;94265.38;5091092;28;20685;-79
2021/12/12 10:30:22;;;;;;;15.07;9.30;;;;;;;1.84;100.00;94256.38;5091693;28;20217;-79
2021/12/12 10:33:02;;;;;;;12.97;8.07;;;;;;;1.79;100.00;94259.44;5090696;28;20268;-78
2021/12/12 10:35:36;;;;;;;12.67;7.27;;;;;;;1.76;100.00;94259.00;5091852;28;20212;-80
2021/12/12 10:38:12;;;;;;;8.83;6.47;;;;;;;1.80;100.00;94258.47;5090967;28;20219;-80
2021/12/12 10:40:47;;;;;;;15.73;9.73;;;;;;;1.97;100.00;94266.78;5089139;28;20201;-78
2021/12/12 10:43:22;;;;;;;17.20;10.00;;;;;;;2.12;100.00;94275.28;5091485;28;20217;-79
2021/12/12 10:45:56;;;;;;;19.87;10.63;;;;;;;2.12;100.00;94280.44;5091036;28;20638;-79
2021/12/12 10:48:32;;;;;;;22.10;11.53;;;;;;;2.05;100.00;94290.56;5090995;28;20218;-79
2021/12/12 10:51:07;;;;;;;18.33;9.70;;;;;;;2.10;100.00;94287.50;5090446;28;20197;-79
2021/12/12 10:53:42;;;;;;;19.10;10.43;;;;;;;2.16;100.00;94297.06;5091182;28;20291;-79
2021/12/12 10:56:24;;;;;;;20.63;11.53;;;;;;;2.08;100.00;94299.66;5085896;28;20679;-79
2021/12/12 10:59:00;;;;;;;23.40;12.83;;;;;;;2.08;100.00;94284.28;5088601;28;20222;-80
2021/12/12 11:01:33;;;;;;;35.80;20.50;;;;;;;2.14;100.00;94292.09;5087817;28;20201;-79
2021/12/12 11:04:11;;;;;;;32.90;18.23;;;;;;;2.29;100.00;94292.09;5091132;28;20202;-80
2021/12/12 11:06:42;;;;;;;40.43;22.20;;;;;;;2.29;100.00;94299.78;5089922;28;20202;-79
2021/12/12 11:09:22;;;;;;;33.20;19.60;;;;;;;2.25;100.00;94293.44;5090897;28;20199;-79
2021/12/12 11:11:54;;;;;;;28.63;18.07;;;;;;;2.34;100.00;94317.22;5090138;28;20271;-80
2021/12/12 11:14:28;;;;;;;23.10;14.47;;;;;;;2.34;100.00;94317.22;5090050;28;20291;-81
2021/12/12 11:16:59;;;;;;;21.73;13.20;;;;;;;2.18;100.00;94316.41;5088705;28;20306;-80
2021/12/12 11:19:34;;;;;;;25.73;14.27;;;;;;;2.22;100.00;94301.47;5090458;28;20230;-79
2021/12/12 11:22:09;;;;;;;24.50;13.30;;;;;;;2.32;100.00;94314.00;5090043;28;20694;-81
2021/12/12 11:24:43;;;;;;;25.70;14.10;;;;;;;2.34;100.00;94305.16;5089955;28;20681;-83
2021/12/12 11:27:18;;;;;;;29.27;15.97;;;;;;;2.16;100.00;94297.84;5090713;28;20194;-84
2021/12/12 11:29:51;;;;;;;25.47;13.93;;;;;;;2.23;100.00;94308.97;5090092;28;20229;-84
2021/12/12 11:32:23;;;;;;;29.50;15.67;;;;;;;2.20;100.00;94313.66;5090264;28;20259;-82
2021/12/12 11:34:54;;;;;;;26.97;14.53;;;;;;;2.17;100.00;94303.75;5089773;28;20210;-84
2021/12/12 11:37:35;;;;;;;35.87;19.70;;;;;;;2.21;100.00;94317.81;5090635;28;20286;-84
2021/12/12 11:40:13;;;;;;;32.93;17.80;;;;;;;2.25;100.00;94313.94;5086500;28;20658;-84
2021/12/12 11:42:47;;;;;;;25.40;14.07;;;;;;;2.25;100.00;94301.91;5089706;28;20207;-83
2021/12/12 11:45:24;;;;;;;33.07;16.60;;;;;;;2.40;100.00;94319.84;5090271;28;20256;-83
2021/12/12 11:48:10;;;;;;;26.80;12.37;;;;;;;2.42;100.00;94317.13;5089792;28;20227;-85
2021/12/12 11:50:47;;;;;;;17.97;9.33;;;;;;;2.26;100.00;94315.50;5088414;28;20208;-84
2021/12/12 11:53:20;;;;;;;30.60;15.60;;;;;;;2.28;100.00;94319.50;5090237;28;20203;-84
2021/12/12 11:55:54;;;;;;;32.83;15.40;;;;;;;2.38;100.00;94318.44;5089209;28;20239;-83
2021/12/12 11:58:31;;;;;;;23.07;11.97;;;;;;;2.30;100.00;94311.63;5090940;28;20206;-84
2021/12/12 12:01:12;;;;;;;21.13;10.87;;;;;;;2.23;100.00;94321.00;5093474;28;20196;-83
2021/12/12 12:04:05;;;;;;;16.23;9.23;;;;;;;2.25;100.00;94327.53;5088292;28;20239;-83
2021/12/12 12:06:43;;;;;;;27.40;14.40;;;;;;;2.28;100.00;94337.44;5087221;28;20206;-82
2021/12/12 12:09:40;;;;;;;29.30;15.27;;;;;;;2.32;100.00;94347.34;5089363;28;20194;-84
2021/12/12 12:12:19;;;;;;;20.60;10.33;;;;;;;2.31;100.00;94332.94;5086451;28;20205;-85
2021/12/12 12:15:08;;;;;;;24.93;13.40;;;;;;;2.31;100.00;94338.84;5089205;28;20202;-84